sensor_id;sensor_type;location;lat;lon;timestamp;temperature;humidity
19220;DHT22;9744;49.364;7.484;2023-02-10T00:00:34;-1.50;99.90
19220;DHT22;9744;49.364;7.484;2023-02-10T00:03:01;-1.50;99.90
19220;DHT22;9744;49.364;7.484;2023-02-10T00:05:28;-1.60;99.90
19220;DHT22;9744;49.364;7.484;2023-02-10T00:07:55;-1.60;99.90
19220;DHT22;9744;49.364;7.484;2023-02-10T00:10:25;-1.60;99.90
19220;DHT22;9744;49.364;7.484;2023-02-10T00:12:53;-1.70;99.90
19220;DHT22;9744;49.364;7.484;2023-02-10T00:15:20;-1.70;99.90
19220;DHT22;9744;49.364;7.484;2023-02-10T00:17:47;-1.70;99.90
19220;DHT22;9744;49.364;7.484;2023-02-10T00:20:15;-1.70;99.90
19220;DHT22;9744;49.364;7.484;2023-02-10T00:22:42;-1.80;99.90
19220;DHT22;9744;49.364;7.484;2023-02-10T00:25:09;-1.80;99.90
19220;DHT22;9744;49.364;7.484;2023-02-10T00:27:37;-1.80;99.90
19220;DHT22;9744;49.364;7.484;2023-02-10T00:30:06;-1.80;99.90
19220;DHT22;9744;49.364;7.484;2023-02-10T00:32:33;-1.80;99.90
19220;DHT22;9744;49.364;7.484;2023-02-10T00:35:03;-1.90;99.90
19220;DHT22;9744;49.364;7.484;2023-02-10T00:37:30;-1.80;99.90
19220;DHT22;9744;49.364;7.484;2023-02-10T00:39:57;-1.90;99.90
19220;DHT22;9744;49.364;7.484;2023-02-10T00:42:26;-1.90;99.90
19220;DHT22;9744;49.364;7.484;2023-02-10T00:44:53;-1.90;99.90
19220;DHT22;9744;49.364;7.484;2023-02-10T00:47:22;-1.90;99.90
19220;DHT22;9744;49.364;7.484;2023-02-10T00:49:53;-2.00;99.90
19220;DHT22;9744;49.364;7.484;2023-02-10T00:52:21;-2.00;99.90
19220;DHT22;9744;49.364;7.484;2023-02-10T00:54:48;-2.00;99.90
19220;DHT22;9744;49.364;7.484;2023-02-10T00:57:15;-2.00;99.90
19220;DHT22;9744;49.364;7.484;2023-02-10T00:59:43;-2.00;99.90
19220;DHT22;9744;49.364;7.484;2023-02-10T01:02:10;-1.90;99.90
19220;DHT22;9744;49.364;7.484;2023-02-10T01:04:39;-2.00;99.90
19220;DHT22;9744;49.364;7.484;2023-02-10T01:07:06;-2.00;99.90
19220;DHT22;9744;49.364;7.484;2023-02-10T01:09:33;-2.00;99.90
19220;DHT22;9744;49.364;7.484;2023-02-10T01:12:00;-2.00;99.90
19220;DHT22;9744;49.364;7.484;2023-02-10T01:14:29;-2.00;99.90
19220;DHT22;9744;49.364;7.484;2023-02-10T01:16:56;-2.10;99.90
19220;DHT22;9744;49.364;7.484;2023-02-10T01:19:24;-2.10;99.90
19220;DHT22;9744;49.364;7.484;2023-02-10T01:21:52;-2.10;99.90
19220;DHT22;9744;49.364;7.484;2023-02-10T01:24:19;-2.10;99.90
19220;DHT22;9744;49.364;7.484;2023-02-10T01:26:47;-2.10;99.90
19220;DHT22;9744;49.364;7.484;2023-02-10T01:29:14;-2.20;99.90
19220;DHT22;9744;49.364;7.484;2023-02-10T01:31:41;-2.20;99.90
19220;DHT22;9744;49.364;7.484;2023-02-10T01:34:09;-2.20;99.90
19220;DHT22;9744;49.364;7.484;2023-02-10T01:36:37;-2.10;99.90
19220;DHT22;9744;49.364;7.484;2023-02-10T01:39:06;-2.20;99.90
19220;DHT22;9744;49.364;7.484;2023-02-10T01:41:34;-2.20;99.90
19220;DHT22;9744;49.364;7.484;2023-02-10T01:44:03;-2.10;99.90
19220;DHT22;9744;49.364;7.484;2023-02-10T01:46:32;-2.10;99.90
19220;DHT22;9744;49.364;7.484;2023-02-10T01:49:05;-2.10;99.90
19220;DHT22;9744;49.364;7.484;2023-02-10T01:51:37;-2.10;99.90
19220;DHT22;9744;49.364;7.484;2023-02-10T01:54:09;-2.10;99.90
19220;DHT22;9744;49.364;7.484;2023-02-10T01:56:38;-2.20;99.90
19220;DHT22;9744;49.364;7.484;2023-02-10T01:59:06;-2.30;99.90
19220;DHT22;9744;49.364;7.484;2023-02-10T02:01:34;-2.30;99.90
19220;DHT22;9744;49.364;7.484;2023-02-10T02:04:03;-2.40;99.90
19220;DHT22;9744;49.364;7.484;2023-02-10T02:06:30;-2.40;99.90
19220;DHT22;9744;49.364;7.484;2023-02-10T02:08:58;-2.40;99.90
19220;DHT22;9744;49.364;7.484;2023-02-10T02:11:32;-2.40;99.90
19220;DHT22;9744;49.364;7.484;2023-02-10T02:14:21;-2.50;99.90
19220;DHT22;9744;49.364;7.484;2023-02-10T02:17:02;-2.50;99.90
19220;DHT22;9744;49.364;7.484;2023-02-10T02:23:10;-2.60;99.90
19220;DHT22;9744;49.364;7.484;2023-02-10T02:28:47;-2.60;99.90
19220;DHT22;9744;49.364;7.484;2023-02-10T02:34:35;-2.70;99.90
19220;DHT22;9744;49.364;7.484;2023-02-10T02:37:10;-2.80;99.90
19220;DHT22;9744;49.364;7.484;2023-02-10T02:39:40;-2.80;99.90
19220;DHT22;9744;49.364;7.484;2023-02-10T02:42:16;-2.80;99.90
19220;DHT22;9744;49.364;7.484;2023-02-10T02:44:46;-2.90;99.90
19220;DHT22;9744;49.364;7.484;2023-02-10T02:47:22;-2.80;99.90
19220;DHT22;9744;49.364;7.484;2023-02-10T02:50:06;-2.90;99.90
19220;DHT22;9744;49.364;7.484;2023-02-10T02:52:44;-2.90;99.90
19220;DHT22;9744;49.364;7.484;2023-02-10T02:55:25;-2.90;99.90
19220;DHT22;9744;49.364;7.484;2023-02-10T02:58:03;-3.00;99.90
19220;DHT22;9744;49.364;7.484;2023-02-10T03:00:35;-3.00;99.90
19220;DHT22;9744;49.364;7.484;2023-02-10T03:03:03;-3.00;99.90
19220;DHT22;9744;49.364;7.484;2023-02-10T03:05:32;-3.10;99.90
19220;DHT22;9744;49.364;7.484;2023-02-10T03:08:00;-3.10;99.90
19220;DHT22;9744;49.364;7.484;2023-02-10T03:10:28;-3.10;99.90
19220;DHT22;9744;49.364;7.484;2023-02-10T03:12:56;-3.10;99.90
19220;DHT22;9744;49.364;7.484;2023-02-10T03:15:23;-3.10;99.90
19220;DHT22;9744;49.364;7.484;2023-02-10T03:17:50;-3.10;99.90
19220;DHT22;9744;49.364;7.484;2023-02-10T03:20:18;-3.20;99.90
19220;DHT22;9744;49.364;7.484;2023-02-10T03:22:46;-3.20;99.90
19220;DHT22;9744;49.364;7.484;2023-02-10T03:25:14;-3.20;99.90
19220;DHT22;9744;49.364;7.484;2023-02-10T03:27:41;-3.20;99.90
19220;DHT22;9744;49.364;7.484;2023-02-10T03:30:09;-3.20;99.90
19220;DHT22;9744;49.364;7.484;2023-02-10T03:32:36;-3.20;99.90
19220;DHT22;9744;49.364;7.484;2023-02-10T03:35:04;-3.20;99.90
19220;DHT22;9744;49.364;7.484;2023-02-10T03:37:31;-3.20;99.90
19220;DHT22;9744;49.364;7.484;2023-02-10T03:39:59;-3.20;99.90
19220;DHT22;9744;49.364;7.484;2023-02-10T03:42:26;-3.20;99.90
19220;DHT22;9744;49.364;7.484;2023-02-10T03:44:53;-3.20;99.90
19220;DHT22;9744;49.364;7.484;2023-02-10T03:47:21;-3.20;99.90
19220;DHT22;9744;49.364;7.484;2023-02-10T03:49:48;-3.20;99.90
19220;DHT22;9744;49.364;7.484;2023-02-10T03:52:15;-3.20;99.90
19220;DHT22;9744;49.364;7.484;2023-02-10T03:54:42;-3.20;99.90
19220;DHT22;9744;49.364;7.484;2023-02-10T03:57:11;-3.30;99.90
19220;DHT22;9744;49.364;7.484;2023-02-10T03:59:39;-3.30;99.90
19220;DHT22;9744;49.364;7.484;2023-02-10T04:02:06;-3.30;99.90
19220;DHT22;9744;49.364;7.484;2023-02-10T04:04:33;-3.10;99.90
19220;DHT22;9744;49.364;7.484;2023-02-10T04:07:01;-3.30;99.90
19220;DHT22;9744;49.364;7.484;2023-02-10T04:09:28;-3.40;99.90
19220;DHT22;9744;49.364;7.484;2023-02-10T04:11:55;-3.40;99.90
19220;DHT22;9744;49.364;7.484;2023-02-10T04:14:24;-3.40;99.90
19220;DHT22;9744;49.364;7.484;2023-02-10T04:16:51;-3.30;99.90
19220;DHT22;9744;49.364;7.484;2023-02-10T04:19:18;-3.40;99.90
19220;DHT22;9744;49.364;7.484;2023-02-10T04:21:45;-3.40;99.90
19220;DHT22;9744;49.364;7.484;2023-02-10T04:24:13;-3.30;99.90
19220;DHT22;9744;49.364;7.484;2023-02-10T04:26:40;-3.40;99.90
19220;DHT22;9744;49.364;7.484;2023-02-10T04:29:08;-3.40;99.90
19220;DHT22;9744;49.364;7.484;2023-02-10T04:31:36;-3.40;99.90
19220;DHT22;9744;49.364;7.484;2023-02-10T04:34:03;-3.50;99.90
19220;DHT22;9744;49.364;7.484;2023-02-10T04:36:31;-3.50;99.90
19220;DHT22;9744;49.364;7.484;2023-02-10T04:38:58;-3.50;99.90
19220;DHT22;9744;49.364;7.484;2023-02-10T04:41:25;-3.50;99.90
19220;DHT22;9744;49.364;7.484;2023-02-10T04:43:53;-3.50;99.90
19220;DHT22;9744;49.364;7.484;2023-02-10T04:46:20;-3.50;99.90
19220;DHT22;9744;49.364;7.484;2023-02-10T04:48:48;-3.50;99.90
19220;DHT22;9744;49.364;7.484;2023-02-10T04:51:16;-3.20;99.90
19220;DHT22;9744;49.364;7.484;2023-02-10T04:53:43;-3.40;99.90
19220;DHT22;9744;49.364;7.484;2023-02-10T04:56:10;-3.40;99.90
19220;DHT22;9744;49.364;7.484;2023-02-10T04:58:37;-3.40;99.90
19220;DHT22;9744;49.364;7.484;2023-02-10T05:01:04;-3.40;99.90
19220;DHT22;9744;49.364;7.484;2023-02-10T05:03:32;-3.30;99.90
19220;DHT22;9744;49.364;7.484;2023-02-10T05:06:06;-3.10;99.90
19220;DHT22;9744;49.364;7.484;2023-02-10T05:08:34;-3.10;99.90
19220;DHT22;9744;49.364;7.484;2023-02-10T05:11:04;-3.30;99.90
19220;DHT22;9744;49.364;7.484;2023-02-10T05:13:31;-3.30;99.90
19220;DHT22;9744;49.364;7.484;2023-02-10T05:15:58;-3.30;99.90
19220;DHT22;9744;49.364;7.484;2023-02-10T05:18:28;-3.30;99.90
19220;DHT22;9744;49.364;7.484;2023-02-10T05:20:55;-3.30;99.90
19220;DHT22;9744;49.364;7.484;2023-02-10T05:23:23;-3.30;99.90
19220;DHT22;9744;49.364;7.484;2023-02-10T05:25:51;-3.30;99.90
19220;DHT22;9744;49.364;7.484;2023-02-10T05:28:18;-3.30;99.90
19220;DHT22;9744;49.364;7.484;2023-02-10T05:30:46;-3.30;99.90
19220;DHT22;9744;49.364;7.484;2023-02-10T05:33:14;-3.20;99.90
19220;DHT22;9744;49.364;7.484;2023-02-10T05:35:41;-3.30;99.90
19220;DHT22;9744;49.364;7.484;2023-02-10T05:38:09;-3.20;99.90
19220;DHT22;9744;49.364;7.484;2023-02-10T05:40:38;-3.30;99.90
19220;DHT22;9744;49.364;7.484;2023-02-10T05:43:06;-3.20;99.90
19220;DHT22;9744;49.364;7.484;2023-02-10T05:45:35;-3.10;99.90
19220;DHT22;9744;49.364;7.484;2023-02-10T05:48:03;-3.20;99.90
19220;DHT22;9744;49.364;7.484;2023-02-10T05:50:31;-3.30;99.90
19220;DHT22;9744;49.364;7.484;2023-02-10T05:52:58;-3.20;99.90
19220;DHT22;9744;49.364;7.484;2023-02-10T05:55:25;-3.10;99.90
19220;DHT22;9744;49.364;7.484;2023-02-10T05:57:54;-3.00;99.90
19220;DHT22;9744;49.364;7.484;2023-02-10T06:00:21;-3.10;99.90
19220;DHT22;9744;49.364;7.484;2023-02-10T06:02:48;-3.10;99.90
19220;DHT22;9744;49.364;7.484;2023-02-10T06:05:15;-3.20;99.90
19220;DHT22;9744;49.364;7.484;2023-02-10T06:07:42;-3.20;99.90
19220;DHT22;9744;49.364;7.484;2023-02-10T06:10:10;-3.20;99.90
19220;DHT22;9744;49.364;7.484;2023-02-10T06:12:37;-3.30;99.90
19220;DHT22;9744;49.364;7.484;2023-02-10T06:15:06;-3.20;99.90
19220;DHT22;9744;49.364;7.484;2023-02-10T06:17:34;-3.20;99.90
19220;DHT22;9744;49.364;7.484;2023-02-10T06:20:01;-3.20;99.90
19220;DHT22;9744;49.364;7.484;2023-02-10T06:22:29;-3.10;99.90
19220;DHT22;9744;49.364;7.484;2023-02-10T06:24:56;-3.20;99.90
19220;DHT22;9744;49.364;7.484;2023-02-10T06:27:23;-2.20;99.90
19220;DHT22;9744;49.364;7.484;2023-02-10T06:29:50;-3.20;99.90
19220;DHT22;9744;49.364;7.484;2023-02-10T06:32:19;-3.10;99.90
19220;DHT22;9744;49.364;7.484;2023-02-10T06:34:46;-2.90;99.90
19220;DHT22;9744;49.364;7.484;2023-02-10T06:37:13;-3.10;99.90
19220;DHT22;9744;49.364;7.484;2023-02-10T06:39:40;-3.10;99.90
19220;DHT22;9744;49.364;7.484;2023-02-10T06:42:08;-3.00;99.90
19220;DHT22;9744;49.364;7.484;2023-02-10T06:44:35;-3.10;99.90
19220;DHT22;9744;49.364;7.484;2023-02-10T06:47:02;-3.10;99.90
19220;DHT22;9744;49.364;7.484;2023-02-10T06:49:31;-3.10;99.90
19220;DHT22;9744;49.364;7.484;2023-02-10T06:51:58;-3.10;99.90
19220;DHT22;9744;49.364;7.484;2023-02-10T06:54:25;-3.10;99.90
19220;DHT22;9744;49.364;7.484;2023-02-10T06:56:52;-3.10;99.90
19220;DHT22;9744;49.364;7.484;2023-02-10T06:59:20;-3.10;99.90
19220;DHT22;9744;49.364;7.484;2023-02-10T07:01:47;-3.20;99.90
19220;DHT22;9744;49.364;7.484;2023-02-10T07:04:15;-3.10;99.90
19220;DHT22;9744;49.364;7.484;2023-02-10T07:06:44;-3.10;99.90
19220;DHT22;9744;49.364;7.484;2023-02-10T07:09:11;-3.10;99.90
19220;DHT22;9744;49.364;7.484;2023-02-10T07:11:38;-3.10;99.90
19220;DHT22;9744;49.364;7.484;2023-02-10T07:14:06;-3.10;99.90
19220;DHT22;9744;49.364;7.484;2023-02-10T07:16:34;-3.00;99.90
19220;DHT22;9744;49.364;7.484;2023-02-10T07:19:01;-3.00;99.90
19220;DHT22;9744;49.364;7.484;2023-02-10T07:21:28;-3.00;99.90
19220;DHT22;9744;49.364;7.484;2023-02-10T07:23:58;-3.00;99.90
19220;DHT22;9744;49.364;7.484;2023-02-10T07:26:27;-3.00;99.90
19220;DHT22;9744;49.364;7.484;2023-02-10T07:28:54;-2.90;99.90
19220;DHT22;9744;49.364;7.484;2023-02-10T07:31:23;-2.90;99.90
19220;DHT22;9744;49.364;7.484;2023-02-10T07:33:50;-2.90;99.90
19220;DHT22;9744;49.364;7.484;2023-02-10T07:36:17;-3.00;99.90
19220;DHT22;9744;49.364;7.484;2023-02-10T07:38:44;-2.90;99.90
19220;DHT22;9744;49.364;7.484;2023-02-10T07:41:13;-2.90;99.90
19220;DHT22;9744;49.364;7.484;2023-02-10T07:43:40;-2.90;99.90
19220;DHT22;9744;49.364;7.484;2023-02-10T07:46:13;-2.70;99.90
19220;DHT22;9744;49.364;7.484;2023-02-10T07:48:41;-2.90;99.90
19220;DHT22;9744;49.364;7.484;2023-02-10T07:51:08;-2.90;99.90
19220;DHT22;9744;49.364;7.484;2023-02-10T07:53:35;-2.60;99.90
19220;DHT22;9744;49.364;7.484;2023-02-10T07:56:04;-2.90;99.90
19220;DHT22;9744;49.364;7.484;2023-02-10T07:58:32;-2.70;99.90
19220;DHT22;9744;49.364;7.484;2023-02-10T08:01:04;-2.70;99.90
19220;DHT22;9744;49.364;7.484;2023-02-10T08:03:31;-2.80;99.90
19220;DHT22;9744;49.364;7.484;2023-02-10T08:05:58;-2.80;99.90
19220;DHT22;9744;49.364;7.484;2023-02-10T08:08:26;-2.90;99.90
19220;DHT22;9744;49.364;7.484;2023-02-10T08:10:53;-2.90;99.90
19220;DHT22;9744;49.364;7.484;2023-02-10T08:13:20;-2.80;99.90
19220;DHT22;9744;49.364;7.484;2023-02-10T08:15:49;-2.70;99.90
19220;DHT22;9744;49.364;7.484;2023-02-10T08:18:16;-2.60;99.90
19220;DHT22;9744;49.364;7.484;2023-02-10T08:20:45;-2.60;99.90
19220;DHT22;9744;49.364;7.484;2023-02-10T08:23:15;-2.40;99.90
19220;DHT22;9744;49.364;7.484;2023-02-10T08:25:43;-2.50;99.90
19220;DHT22;9744;49.364;7.484;2023-02-10T08:28:10;-2.30;99.90
19220;DHT22;9744;49.364;7.484;2023-02-10T08:30:37;-2.30;99.90
19220;DHT22;9744;49.364;7.484;2023-02-10T08:33:05;-2.30;99.90
19220;DHT22;9744;49.364;7.484;2023-02-10T08:35:34;-2.20;99.90
19220;DHT22;9744;49.364;7.484;2023-02-10T08:38:02;-2.00;99.90
19220;DHT22;9744;49.364;7.484;2023-02-10T08:40:30;-1.90;99.90
19220;DHT22;9744;49.364;7.484;2023-02-10T08:42:58;-1.80;99.90
19220;DHT22;9744;49.364;7.484;2023-02-10T08:45:25;-1.60;99.90
19220;DHT22;9744;49.364;7.484;2023-02-10T08:47:52;-1.60;99.90
19220;DHT22;9744;49.364;7.484;2023-02-10T08:50:21;-1.40;99.90
19220;DHT22;9744;49.364;7.484;2023-02-10T08:52:48;-1.20;99.90
19220;DHT22;9744;49.364;7.484;2023-02-10T08:55:15;-1.10;99.90
19220;DHT22;9744;49.364;7.484;2023-02-10T08:57:44;-1.00;99.90
19220;DHT22;9744;49.364;7.484;2023-02-10T09:00:12;-0.90;99.90
19220;DHT22;9744;49.364;7.484;2023-02-10T09:02:39;-0.90;99.90
19220;DHT22;9744;49.364;7.484;2023-02-10T09:05:06;-1.00;99.90
19220;DHT22;9744;49.364;7.484;2023-02-10T09:07:35;-0.90;99.90
19220;DHT22;9744;49.364;7.484;2023-02-10T09:10:02;-0.90;99.90
19220;DHT22;9744;49.364;7.484;2023-02-10T09:12:29;-0.80;99.90
19220;DHT22;9744;49.364;7.484;2023-02-10T09:14:57;-0.70;99.90
19220;DHT22;9744;49.364;7.484;2023-02-10T09:17:24;-0.40;99.90
19220;DHT22;9744;49.364;7.484;2023-02-10T09:19:51;-0.20;99.90
19220;DHT22;9744;49.364;7.484;2023-02-10T09:22:18;0.00;99.90
19220;DHT22;9744;49.364;7.484;2023-02-10T09:24:47;0.30;99.90
19220;DHT22;9744;49.364;7.484;2023-02-10T09:27:18;0.60;99.90
19220;DHT22;9744;49.364;7.484;2023-02-10T09:29:45;0.80;99.90
19220;DHT22;9744;49.364;7.484;2023-02-10T09:32:12;1.80;99.90
19220;DHT22;9744;49.364;7.484;2023-02-10T09:34:40;1.10;99.90
19220;DHT22;9744;49.364;7.484;2023-02-10T09:37:08;1.20;99.90
19220;DHT22;9744;49.364;7.484;2023-02-10T09:39:36;1.10;99.90
19220;DHT22;9744;49.364;7.484;2023-02-10T09:42:08;1.10;99.90
19220;DHT22;9744;49.364;7.484;2023-02-10T09:44:40;0.80;99.90
19220;DHT22;9744;49.364;7.484;2023-02-10T09:47:27;0.70;99.90
19220;DHT22;9744;49.364;7.484;2023-02-10T09:50:10;0.80;99.90
19220;DHT22;9744;49.364;7.484;2023-02-10T09:52:54;1.00;99.90
19220;DHT22;9744;49.364;7.484;2023-02-10T09:55:28;1.00;99.90
19220;DHT22;9744;49.364;7.484;2023-02-10T09:58:00;1.00;99.90
19220;DHT22;9744;49.364;7.484;2023-02-10T10:00:32;0.80;99.90
19220;DHT22;9744;49.364;7.484;2023-02-10T10:03:03;0.80;99.90
19220;DHT22;9744;49.364;7.484;2023-02-10T10:05:40;0.70;99.90
19220;DHT22;9744;49.364;7.484;2023-02-10T10:08:16;0.70;99.90
19220;DHT22;9744;49.364;7.484;2023-02-10T10:10:46;0.50;99.90
19220;DHT22;9744;49.364;7.484;2023-02-10T10:13:22;0.50;99.90
19220;DHT22;9744;49.364;7.484;2023-02-10T10:16:00;0.50;99.90
19220;DHT22;9744;49.364;7.484;2023-02-10T10:18:38;0.50;99.90
19220;DHT22;9744;49.364;7.484;2023-02-10T10:21:14;0.70;99.90
19220;DHT22;9744;49.364;7.484;2023-02-10T10:23:50;0.80;99.90
19220;DHT22;9744;49.364;7.484;2023-02-10T10:26:36;0.90;99.90
19220;DHT22;9744;49.364;7.484;2023-02-10T10:29:23;1.00;99.90
19220;DHT22;9744;49.364;7.484;2023-02-10T10:31:59;1.20;99.90
19220;DHT22;9744;49.364;7.484;2023-02-10T10:34:36;1.30;99.90
19220;DHT22;9744;49.364;7.484;2023-02-10T10:37:11;1.40;99.90
19220;DHT22;9744;49.364;7.484;2023-02-10T10:39:41;1.40;99.90
19220;DHT22;9744;49.364;7.484;2023-02-10T10:42:17;1.40;99.90
19220;DHT22;9744;49.364;7.484;2023-02-10T10:44:48;1.40;99.90
19220;DHT22;9744;49.364;7.484;2023-02-10T10:47:18;1.70;99.90
19220;DHT22;9744;49.364;7.484;2023-02-10T10:49:47;1.70;99.90
19220;DHT22;9744;49.364;7.484;2023-02-10T10:52:26;1.80;99.90
19220;DHT22;9744;49.364;7.484;2023-02-10T10:54:55;1.90;99.90
19220;DHT22;9744;49.364;7.484;2023-02-10T10:57:23;1.90;99.90
19220;DHT22;9744;49.364;7.484;2023-02-10T10:59:56;2.00;99.90
19220;DHT22;9744;49.364;7.484;2023-02-10T11:02:25;1.90;99.90
19220;DHT22;9744;49.364;7.484;2023-02-10T11:05:02;2.10;99.90
19220;DHT22;9744;49.364;7.484;2023-02-10T11:07:31;1.90;99.90
19220;DHT22;9744;49.364;7.484;2023-02-10T11:09:59;1.90;99.90
19220;DHT22;9744;49.364;7.484;2023-02-10T11:12:30;1.90;99.90
19220;DHT22;9744;49.364;7.484;2023-02-10T11:15:00;1.90;99.90
19220;DHT22;9744;49.364;7.484;2023-02-10T11:17:34;2.10;99.90
19220;DHT22;9744;49.364;7.484;2023-02-10T11:20:04;2.00;99.90
19220;DHT22;9744;49.364;7.484;2023-02-10T11:22:32;2.10;99.90
19220;DHT22;9744;49.364;7.484;2023-02-10T11:25:01;2.00;99.90
19220;DHT22;9744;49.364;7.484;2023-02-10T11:27:31;2.10;99.90
19220;DHT22;9744;49.364;7.484;2023-02-10T11:30:00;2.10;99.90
19220;DHT22;9744;49.364;7.484;2023-02-10T11:32:31;2.20;99.90
19220;DHT22;9744;49.364;7.484;2023-02-10T11:35:01;2.40;99.90
19220;DHT22;9744;49.364;7.484;2023-02-10T11:37:31;2.40;99.90
19220;DHT22;9744;49.364;7.484;2023-02-10T11:40:00;2.40;99.90
19220;DHT22;9744;49.364;7.484;2023-02-10T11:42:31;2.50;99.90
19220;DHT22;9744;49.364;7.484;2023-02-10T11:45:02;2.60;99.90
19220;DHT22;9744;49.364;7.484;2023-02-10T11:47:31;2.70;99.90
19220;DHT22;9744;49.364;7.484;2023-02-10T11:49:58;2.80;99.90
19220;DHT22;9744;49.364;7.484;2023-02-10T11:52:28;3.00;99.90
19220;DHT22;9744;49.364;7.484;2023-02-10T11:54:57;3.00;99.90
19220;DHT22;9744;49.364;7.484;2023-02-10T11:57:37;3.20;99.90
19220;DHT22;9744;49.364;7.484;2023-02-10T12:00:30;3.10;99.90
19220;DHT22;9744;49.364;7.484;2023-02-10T12:05:57;3.60;99.90
19220;DHT22;9744;49.364;7.484;2023-02-10T12:08:32;3.60;99.90
19220;DHT22;9744;49.364;7.484;2023-02-10T12:11:09;3.70;99.90
19220;DHT22;9744;49.364;7.484;2023-02-10T12:13:43;3.70;99.90
19220;DHT22;9744;49.364;7.484;2023-02-10T12:16:23;3.40;99.90
19220;DHT22;9744;49.364;7.484;2023-02-10T12:18:58;3.30;99.90
19220;DHT22;9744;49.364;7.484;2023-02-10T12:27:33;3.60;99.90
19220;DHT22;9744;49.364;7.484;2023-02-10T12:30:07;3.50;99.90
19220;DHT22;9744;49.364;7.484;2023-02-10T12:32:48;3.40;99.90
19220;DHT22;9744;49.364;7.484;2023-02-10T12:35:36;3.20;99.90
19220;DHT22;9744;49.364;7.484;2023-02-10T12:38:21;3.20;99.90
19220;DHT22;9744;49.364;7.484;2023-02-10T12:40:58;3.30;99.90
19220;DHT22;9744;49.364;7.484;2023-02-10T12:43:38;3.40;99.90
19220;DHT22;9744;49.364;7.484;2023-02-10T12:46:15;3.60;99.90
19220;DHT22;9744;49.364;7.484;2023-02-10T12:48:52;3.70;99.90
19220;DHT22;9744;49.364;7.484;2023-02-10T12:51:34;4.00;99.90
19220;DHT22;9744;49.364;7.484;2023-02-10T12:54:09;4.50;99.90
19220;DHT22;9744;49.364;7.484;2023-02-10T12:56:41;4.90;99.90
19220;DHT22;9744;49.364;7.484;2023-02-10T12:59:15;5.00;99.90
19220;DHT22;9744;49.364;7.484;2023-02-10T13:01:45;5.20;99.90
19220;DHT22;9744;49.364;7.484;2023-02-10T13:04:22;5.40;99.90
19220;DHT22;9744;49.364;7.484;2023-02-10T13:06:56;6.00;99.90
19220;DHT22;9744;49.364;7.484;2023-02-10T13:09:30;5.80;99.90
19220;DHT22;9744;49.364;7.484;2023-02-10T13:12:18;5.80;99.90
19220;DHT22;9744;49.364;7.484;2023-02-10T13:14:47;6.10;99.90
19220;DHT22;9744;49.364;7.484;2023-02-10T13:17:15;6.40;99.90
19220;DHT22;9744;49.364;7.484;2023-02-10T13:19:52;6.80;99.90
19220;DHT22;9744;49.364;7.484;2023-02-10T13:22:31;6.90;99.90
19220;DHT22;9744;49.364;7.484;2023-02-10T13:25:09;7.10;99.90
19220;DHT22;9744;49.364;7.484;2023-02-10T13:27:50;7.20;99.90
19220;DHT22;9744;49.364;7.484;2023-02-10T13:30:36;7.30;99.90
19220;DHT22;9744;49.364;7.484;2023-02-10T13:33:16;7.40;99.90
19220;DHT22;9744;49.364;7.484;2023-02-10T13:35:47;7.70;99.90
19220;DHT22;9744;49.364;7.484;2023-02-10T13:38:16;7.70;99.90
19220;DHT22;9744;49.364;7.484;2023-02-10T13:40:46;7.90;99.90
19220;DHT22;9744;49.364;7.484;2023-02-10T13:43:25;7.90;99.90
19220;DHT22;9744;49.364;7.484;2023-02-10T13:45:54;7.90;99.90
19220;DHT22;9744;49.364;7.484;2023-02-10T13:48:23;7.80;99.90
19220;DHT22;9744;49.364;7.484;2023-02-10T13:50:58;7.90;99.90
19220;DHT22;9744;49.364;7.484;2023-02-10T13:53:36;7.60;99.90
19220;DHT22;9744;49.364;7.484;2023-02-10T13:56:12;7.40;99.90
19220;DHT22;9744;49.364;7.484;2023-02-10T13:58:49;7.50;99.90
19220;DHT22;9744;49.364;7.484;2023-02-10T14:01:37;7.60;99.90
19220;DHT22;9744;49.364;7.484;2023-02-10T14:04:06;7.60;99.90
19220;DHT22;9744;49.364;7.484;2023-02-10T14:06:54;7.60;99.90
19220;DHT22;9744;49.364;7.484;2023-02-10T14:09:33;7.40;99.90
19220;DHT22;9744;49.364;7.484;2023-02-10T14:12:18;7.40;99.90
19220;DHT22;9744;49.364;7.484;2023-02-10T14:14:49;7.30;99.90
19220;DHT22;9744;49.364;7.484;2023-02-10T14:17:20;7.30;99.90
19220;DHT22;9744;49.364;7.484;2023-02-10T14:19:51;7.30;99.90
19220;DHT22;9744;49.364;7.484;2023-02-10T14:22:24;7.30;99.90
19220;DHT22;9744;49.364;7.484;2023-02-10T14:24:52;7.50;99.90
19220;DHT22;9744;49.364;7.484;2023-02-10T14:27:21;7.50;99.90
19220;DHT22;9744;49.364;7.484;2023-02-10T14:29:53;7.40;99.90
19220;DHT22;9744;49.364;7.484;2023-02-10T14:32:22;7.20;99.90
19220;DHT22;9744;49.364;7.484;2023-02-10T14:34:54;7.00;99.90
19220;DHT22;9744;49.364;7.484;2023-02-10T14:37:23;6.70;99.90
19220;DHT22;9744;49.364;7.484;2023-02-10T14:39:52;6.60;99.90
19220;DHT22;9744;49.364;7.484;2023-02-10T14:42:20;6.70;99.90
19220;DHT22;9744;49.364;7.484;2023-02-10T14:44:49;6.70;99.90
19220;DHT22;9744;49.364;7.484;2023-02-10T14:47:20;6.30;99.90
19220;DHT22;9744;49.364;7.484;2023-02-10T14:49:50;6.50;99.90
19220;DHT22;9744;49.364;7.484;2023-02-10T14:52:26;6.70;99.90
19220;DHT22;9744;49.364;7.484;2023-02-10T14:54:54;6.60;99.90
19220;DHT22;9744;49.364;7.484;2023-02-10T14:57:25;6.60;99.90
19220;DHT22;9744;49.364;7.484;2023-02-10T14:59:54;6.50;99.90
19220;DHT22;9744;49.364;7.484;2023-02-10T15:02:24;6.10;99.90
19220;DHT22;9744;49.364;7.484;2023-02-10T15:04:54;6.10;99.90
19220;DHT22;9744;49.364;7.484;2023-02-10T15:07:27;5.90;99.90
19220;DHT22;9744;49.364;7.484;2023-02-10T15:09:58;5.70;99.90
19220;DHT22;9744;49.364;7.484;2023-02-10T15:12:27;5.50;99.90
19220;DHT22;9744;49.364;7.484;2023-02-10T15:15:02;5.20;99.90
19220;DHT22;9744;49.364;7.484;2023-02-10T15:17:35;5.00;99.90
19220;DHT22;9744;49.364;7.484;2023-02-10T15:20:21;4.70;99.90
19220;DHT22;9744;49.364;7.484;2023-02-10T15:23:04;4.60;99.90
19220;DHT22;9744;49.364;7.484;2023-02-10T15:25:34;4.50;99.90
19220;DHT22;9744;49.364;7.484;2023-02-10T15:28:25;4.50;99.90
19220;DHT22;9744;49.364;7.484;2023-02-10T15:30:57;4.40;99.90
19220;DHT22;9744;49.364;7.484;2023-02-10T15:33:25;4.30;99.90
19220;DHT22;9744;49.364;7.484;2023-02-10T15:35:55;4.30;99.90
19220;DHT22;9744;49.364;7.484;2023-02-10T15:38:25;4.10;99.90
19220;DHT22;9744;49.364;7.484;2023-02-10T15:40:54;4.10;99.90
19220;DHT22;9744;49.364;7.484;2023-02-10T15:43:24;4.00;99.90
19220;DHT22;9744;49.364;7.484;2023-02-10T15:45:52;3.90;99.90
19220;DHT22;9744;49.364;7.484;2023-02-10T15:48:20;3.80;99.90
19220;DHT22;9744;49.364;7.484;2023-02-10T15:50:49;3.70;99.90
19220;DHT22;9744;49.364;7.484;2023-02-10T15:53:18;3.60;99.90
19220;DHT22;9744;49.364;7.484;2023-02-10T15:55:49;3.60;99.90
19220;DHT22;9744;49.364;7.484;2023-02-10T15:58:16;3.50;99.90
19220;DHT22;9744;49.364;7.484;2023-02-10T16:00:43;3.50;99.90
19220;DHT22;9744;49.364;7.484;2023-02-10T16:03:12;3.50;99.90
19220;DHT22;9744;49.364;7.484;2023-02-10T16:05:41;3.30;99.90
19220;DHT22;9744;49.364;7.484;2023-02-10T16:08:14;3.30;99.90
19220;DHT22;9744;49.364;7.484;2023-02-10T16:10:42;3.20;99.90
19220;DHT22;9744;49.364;7.484;2023-02-10T16:13:12;3.20;99.90
19220;DHT22;9744;49.364;7.484;2023-02-10T16:15:40;3.10;99.90
19220;DHT22;9744;49.364;7.484;2023-02-10T16:18:11;3.00;99.90
19220;DHT22;9744;49.364;7.484;2023-02-10T16:20:39;3.10;99.90
19220;DHT22;9744;49.364;7.484;2023-02-10T16:23:10;2.90;99.90
19220;DHT22;9744;49.364;7.484;2023-02-10T16:25:38;2.90;99.90
19220;DHT22;9744;49.364;7.484;2023-02-10T16:28:06;2.80;99.90
19220;DHT22;9744;49.364;7.484;2023-02-10T16:30:35;2.80;99.90